Time,TemperatureF,DewpointF,PressureIn,WindDirection,WindDirectionDegrees,WindSpeedMPH,WindSpeedGustMPH,Humidity,HourlyPrecipIn,Conditions,Clouds,dailyrainin,SoftwareType,DateUTC
2013-02-06 00:13:00,29.4,26.0,29.90,NE,42,0.0,0.0,88,0.00,,,0.00,weatherlink.com 1.10,2013-02-06 06:13:00,
2013-02-06 00:27:00,29.9,27.0,29.91,NE,48,0.0,0.0,88,0.00,,,0.00,weatherlink.com 1.10,2013-02-06 06:27:00,
2013-02-06 00:43:00,30.4,27.0,29.91,NE,48,0.0,0.0,86,0.00,,,0.00,weatherlink.com 1.10,2013-02-06 06:43:00,
2013-02-06 00:57:00,30.3,27.0,29.91,NE,48,0.0,0.0,86,0.00,,,0.00,weatherlink.com 1.10,2013-02-06 06:57:00,
2013-02-06 01:12:00,29.9,27.0,29.91,NE,48,0.0,0.0,87,0.00,,,0.00,weatherlink.com 1.10,2013-02-06 07:12:00,
2013-02-06 01:28:00,30.5,27.0,29.89,NE,49,0.0,1.0,87,0.00,,,0.00,weatherlink.com 1.10,2013-02-06 07:28:00,
2013-02-06 01:42:00,31.1,27.0,29.89,NE,49,0.0,0.0,86,0.00,,,0.00,weatherlink.com 1.10,2013-02-06 07:42:00,
2013-02-06 01:58:00,31.5,28.0,29.89,NE,49,0.0,0.0,86,0.00,,,0.00,weatherlink.com 1.10,2013-02-06 07:58:00,
2013-02-06 02:13:00,31.8,28.0,29.89,NE,49,0.0,0.0,85,0.00,,,0.00,weatherlink.com 1.10,2013-02-06 08:13:00,
2013-02-06 02:28:00,32.0,28.0,29.88,NE,49,0.0,1.0,85,0.00,,,0.00,weatherlink.com 1.10,2013-02-06 08:28:00,
2013-02-06 02:42:00,32.2,28.0,29.88,SSE,154,0.0,3.0,85,0.00,,,0.00,weatherlink.com 1.10,2013-02-06 08:42:00,
2013-02-06 02:58:00,32.5,28.0,29.88,SSE,166,0.0,3.0,84,0.00,,,0.00,weatherlink.com 1.10,2013-02-06 08:58:00,
2013-02-06 03:13:00,33.0,28.0,29.87,SSE,166,0.0,2.0,83,0.00,,,0.00,weatherlink.com 1.10,2013-02-06 09:13:00,
2013-02-06 03:28:00,33.4,29.0,29.86,SSE,166,3.0,6.0,82,0.00,,,0.00,weatherlink.com 1.10,2013-02-06 09:28:00,
2013-02-06 03:43:00,33.4,28.0,29.85,SSE,163,1.0,5.0,81,0.00,,,0.00,weatherlink.com 1.10,2013-02-06 09:43:00,
2013-02-06 03:57:00,33.2,28.0,29.85,SSE,159,1.0,3.0,82,0.00,,,0.00,weatherlink.com 1.10,2013-02-06 09:57:00,
2013-02-06 04:13:00,33.2,28.0,29.85,SE,136,4.0,7.0,82,0.00,,,0.00,weatherlink.com 1.10,2013-02-06 10:13:00,
2013-02-06 04:28:00,33.2,28.0,29.85,SSE,155,0.0,4.0,81,0.00,,,0.00,weatherlink.com 1.10,2013-02-06 10:28:00,
2013-02-06 04:43:00,32.7,28.0,29.84,SSW,194,0.0,3.0,82,0.00,,,0.00,weatherlink.com 1.10,2013-02-06 10:43:00,
2013-02-06 04:58:00,32.3,28.0,29.84,SSW,195,0.0,3.0,83,0.00,,,0.00,weatherlink.com 1.10,2013-02-06 10:58:00,
2013-02-06 05:13:00,31.9,27.0,29.84,SE,136,3.0,6.0,83,0.00,,,0.00,weatherlink.com 1.10,2013-02-06 11:13:00,
2013-02-06 05:28:00,31.9,28.0,29.83,SE,145,0.0,4.0,84,0.00,,,0.00,weatherlink.com 1.10,2013-02-06 11:28:00,
2013-02-06 05:43:00,32.0,28.0,29.83,SE,130,2.0,6.0,84,0.00,,,0.00,weatherlink.com 1.10,2013-02-06 11:43:00,
2013-02-06 05:57:00,32.0,28.0,29.83,SSE,157,0.0,6.0,84,0.00,,,0.00,weatherlink.com 1.10,2013-02-06 11:57:00,
2013-02-06 06:13:00,31.9,28.0,29.83,South,191,0.0,6.0,84,0.00,,,0.00,weatherlink.com 1.10,2013-02-06 12:13:00,
2013-02-06 06:29:00,31.7,28.0,29.84,SSW,213,0.0,4.0,85,0.00,,,0.00,weatherlink.com 1.10,2013-02-06 12:29:00,
2013-02-06 06:43:00,31.4,27.0,29.83,SSE,163,0.0,5.0,85,0.00,,,0.00,weatherlink.com 1.10,2013-02-06 12:43:00,
2013-02-06 06:58:00,31.8,28.0,29.82,SSE,153,2.0,8.0,85,0.00,,,0.00,weatherlink.com 1.10,2013-02-06 12:58:00,
2013-02-06 07:13:00,32.1,28.0,29.82,South,176,5.0,6.0,85,0.00,,,0.00,weatherlink.com 1.10,2013-02-06 13:13:00,
2013-02-06 07:28:00,32.3,28.0,29.82,SW,214,0.0,7.0,85,0.00,,,0.00,weatherlink.com 1.10,2013-02-06 13:28:00,
2013-02-06 07:43:00,32.4,28.0,29.82,SSE,155,2.0,10.0,85,0.00,,,0.00,weatherlink.com 1.10,2013-02-06 13:43:00,
2013-02-06 07:58:00,32.5,28.0,29.82,SSW,192,4.0,6.0,84,0.00,,,0.00,weatherlink.com 1.10,2013-02-06 13:58:00,
2013-02-06 08:13:00,32.8,29.0,29.81,SW,223,3.0,7.0,84,0.00,,,0.00,weatherlink.com 1.10,2013-02-06 14:13:00,
2013-02-06 08:28:00,33.6,29.0,29.82,SW,215,0.0,7.0,83,0.00,,,0.00,weatherlink.com 1.10,2013-02-06 14:28:00,
2013-02-06 08:44:00,34.7,30.0,29.82,SE,140,0.0,8.0,82,0.00,,,0.00,weatherlink.com 1.10,2013-02-06 14:44:00,
2013-02-06 08:58:00,36.0,30.0,29.81,South,186,4.0,11.0,80,0.00,,,0.00,weatherlink.com 1.10,2013-02-06 14:58:00,
2013-02-06 09:13:00,37.4,30.0,29.82,WSW,238,2.0,11.0,76,0.00,,,0.00,weatherlink.com 1.10,2013-02-06 15:13:00,
2013-02-06 09:28:00,38.0,31.0,29.81,SSW,194,3.0,10.0,75,0.00,,,0.00,weatherlink.com 1.10,2013-02-06 15:28:00,
2013-02-06 09:44:00,40.0,32.0,29.81,SSE,147,6.0,9.0,72,0.00,,,0.00,weatherlink.com 1.10,2013-02-06 15:44:00,
2013-02-06 09:59:00,41.2,32.0,29.81,SSW,196,0.0,13.0,69,0.00,,,0.00,weatherlink.com 1.10,2013-02-06 15:59:00,
2013-02-06 10:14:00,41.5,32.0,29.80,SSW,211,2.0,12.0,68,0.00,,,0.00,weatherlink.com 1.10,2013-02-06 16:14:00,
2013-02-06 10:29:00,42.0,32.0,29.80,SSW,203,3.0,11.0,68,0.00,,,0.00,weatherlink.com 1.10,2013-02-06 16:29:00,
2013-02-06 10:44:00,42.0,32.0,29.79,SSW,201,2.0,11.0,68,0.00,,,0.00,weatherlink.com 1.10,2013-02-06 16:44:00,
2013-02-06 10:58:00,42.3,32.0,29.79,SSE,165,6.0,10.0,68,0.00,,,0.00,weatherlink.com 1.10,2013-02-06 16:58:00,
2013-02-06 11:14:00,42.6,32.0,29.79,SE,131,2.0,13.0,67,0.00,,,0.00,weatherlink.com 1.10,2013-02-06 17:14:00,
2013-02-06 11:29:00,42.8,33.0,29.79,SW,219,4.0,12.0,69,0.00,,,0.00,weatherlink.com 1.10,2013-02-06 17:29:00,
2013-02-06 11:44:00,43.7,34.0,29.79,SSW,213,3.0,11.0,68,0.00,,,0.00,weatherlink.com 1.10,2013-02-06 17:44:00,
2013-02-06 11:59:00,45.2,34.0,29.78,SW,225,6.0,10.0,66,0.00,,,0.00,weatherlink.com 1.10,2013-02-06 17:59:00,
2013-02-06 12:14:00,46.1,34.0,29.77,SW,216,1.0,12.0,64,0.00,,,0.00,weatherlink.com 1.10,2013-02-06 18:14:00,
2013-02-06 12:29:00,46.3,34.0,29.77,SSW,192,2.0,9.0,63,0.00,,,0.00,weatherlink.com 1.10,2013-02-06 18:29:00,
2013-02-06 12:44:00,46.9,35.0,29.75,SW,227,4.0,13.0,64,0.00,,,0.00,weatherlink.com 1.10,2013-02-06 18:44:00,
2013-02-06 12:58:00,47.5,35.0,29.74,SW,219,5.0,12.0,63,0.00,,,0.00,weatherlink.com 1.10,2013-02-06 18:58:00,
2013-02-06 13:14:00,47.9,35.0,29.74,SW,225,2.0,10.0,62,0.00,,,0.00,weatherlink.com 1.10,2013-02-06 19:14:00,
2013-02-06 13:29:00,48.0,36.0,29.73,SSW,211,0.0,9.0,63,0.00,,,0.00,weatherlink.com 1.10,2013-02-06 19:29:00,
2013-02-06 13:44:00,48.3,37.0,29.72,SSE,167,3.0,9.0,64,0.00,,,0.00,weatherlink.com 1.10,2013-02-06 19:44:00,
2013-02-06 13:59:00,48.9,36.0,29.72,South,177,3.0,10.0,62,0.00,,,0.00,weatherlink.com 1.10,2013-02-06 19:59:00,
2013-02-06 14:14:00,49.4,37.0,29.71,SW,215,0.0,8.0,63,0.00,,,0.00,weatherlink.com 1.10,2013-02-06 20:14:00,
2013-02-06 14:29:00,49.9,38.0,29.70,South,178,0.0,6.0,63,0.00,,,0.00,weatherlink.com 1.10,2013-02-06 20:29:00,
2013-02-06 14:44:00,49.8,38.0,29.69,SSE,165,2.0,8.0,64,0.00,,,0.00,weatherlink.com 1.10,2013-02-06 20:44:00,
2013-02-06 14:59:00,50.1,38.0,29.69,SE,128,3.0,8.0,64,0.00,,,0.00,weatherlink.com 1.10,2013-02-06 20:59:00,
2013-02-06 15:14:00,50.5,39.0,29.68,SW,224,0.0,7.0,65,0.00,,,0.00,weatherlink.com 1.10,2013-02-06 21:14:00,
2013-02-06 15:29:00,51.1,39.0,29.68,SW,215,0.0,7.0,63,0.00,,,0.00,weatherlink.com 1.10,2013-02-06 21:29:00,
2013-02-06 15:44:00,51.6,39.0,29.68,South,188,0.0,4.0,63,0.00,,,0.00,weatherlink.com 1.10,2013-02-06 21:44:00,
2013-02-06 15:59:00,51.9,40.0,29.68,South,187,3.0,3.0,63,0.00,,,0.00,weatherlink.com 1.10,2013-02-06 21:59:00,
2013-02-06 16:14:00,51.7,40.0,29.68,South,187,0.0,0.0,64,0.00,,,0.00,weatherlink.com 1.10,2013-02-06 22:14:00,
2013-02-06 16:29:00,51.8,40.0,29.68,South,187,0.0,1.0,64,0.00,,,0.00,weatherlink.com 1.10,2013-02-06 22:29:00,
2013-02-06 16:45:00,52.5,39.0,29.67,SSE,167,0.0,5.0,61,0.00,,,0.00,weatherlink.com 1.10,2013-02-06 22:45:00,
2013-02-06 17:00:00,53.3,40.0,29.66,SW,218,3.0,7.0,60,0.00,,,0.00,weatherlink.com 1.10,2013-02-06 23:00:00,
2013-02-06 17:15:00,52.9,39.0,29.67,South,180,1.0,6.0,60,0.00,,,0.00,weatherlink.com 1.10,2013-02-06 23:15:00,
2013-02-06 17:30:00,52.1,38.0,29.67,SSE,167,0.0,6.0,60,0.00,,,0.00,weatherlink.com 1.10,2013-02-06 23:30:00,
2013-02-06 17:45:00,51.2,38.0,29.67,SSE,166,0.0,3.0,62,0.00,,,0.00,weatherlink.com 1.10,2013-02-06 23:45:00,
2013-02-06 18:00:00,49.9,38.0,29.67,SSE,166,0.0,1.0,64,0.00,,,0.00,weatherlink.com 1.10,2013-02-07 00:00:00,
2013-02-06 18:15:00,48.4,38.0,29.67,SSE,166,0.0,0.0,67,0.00,,,0.00,weatherlink.com 1.10,2013-02-07 00:15:00,
2013-02-06 18:30:00,47.5,37.0,29.68,SSE,166,0.0,0.0,68,0.00,,,0.00,weatherlink.com 1.10,2013-02-07 00:30:00,
2013-02-06 18:45:00,46.4,37.0,29.68,SSE,166,0.0,1.0,70,0.00,,,0.00,weatherlink.com 1.10,2013-02-07 00:45:00,
2013-02-06 19:00:00,46.1,37.0,29.68,SSE,166,0.0,0.0,71,0.00,,,0.00,weatherlink.com 1.10,2013-02-07 01:00:00,
2013-02-06 19:15:00,45.1,37.0,29.68,SSE,166,0.0,0.0,72,0.00,,,0.00,weatherlink.com 1.10,2013-02-07 01:15:00,
2013-02-06 19:30:00,44.8,37.0,29.69,SSE,166,0.0,1.0,74,0.00,,,0.00,weatherlink.com 1.10,2013-02-07 01:30:00,
2013-02-06 19:45:00,44.2,36.0,29.70,SSE,166,0.0,0.0,74,0.00,,,0.00,weatherlink.com 1.10,2013-02-07 01:45:00,
2013-02-06 20:00:00,43.6,37.0,29.70,SSE,166,0.0,0.0,77,0.00,,,0.00,weatherlink.com 1.10,2013-02-07 02:00:00,
2013-02-06 20:15:00,43.5,37.0,29.70,SSE,166,0.0,0.0,78,0.00,,,0.00,weatherlink.com 1.10,2013-02-07 02:15:00,
2013-02-06 20:30:00,43.2,37.0,29.69,SSE,166,0.0,0.0,78,0.00,,,0.00,weatherlink.com 1.10,2013-02-07 02:30:00,
2013-02-06 20:45:00,43.1,37.0,29.69,SSE,166,0.0,0.0,78,0.00,,,0.00,weatherlink.com 1.10,2013-02-07 02:45:00,
2013-02-06 21:00:00,43.0,37.0,29.70,SSE,166,0.0,0.0,78,0.00,,,0.00,weatherlink.com 1.10,2013-02-07 03:00:00,
2013-02-06 21:14:00,43.4,37.0,29.70,SSE,166,0.0,0.0,78,0.00,,,0.00,weatherlink.com 1.10,2013-02-07 03:14:00,
2013-02-06 21:30:00,43.7,37.0,29.71,SSE,166,0.0,2.0,77,0.00,,,0.00,weatherlink.com 1.10,2013-02-07 03:30:00,
2013-02-06 21:45:00,43.6,37.0,29.70,SSE,166,0.0,0.0,78,0.00,,,0.00,weatherlink.com 1.10,2013-02-07 03:45:00,
2013-02-06 21:59:00,43.2,37.0,29.70,SSE,166,0.0,0.0,78,0.00,,,0.00,weatherlink.com 1.10,2013-02-07 03:59:00,
2013-02-06 22:14:00,42.7,36.0,29.70,SSE,166,0.0,0.0,78,0.00,,,0.00,weatherlink.com 1.10,2013-02-07 04:14:00,
2013-02-06 22:29:00,41.8,36.0,29.70,SSE,166,0.0,0.0,79,0.00,,,0.00,weatherlink.com 1.10,2013-02-07 04:29:00,
2013-02-06 22:44:00,41.0,35.0,29.70,SSE,166,0.0,0.0,80,0.00,,,0.00,weatherlink.com 1.10,2013-02-07 04:44:00,
2013-02-06 22:59:00,40.1,35.0,29.70,SSE,166,0.0,0.0,82,0.00,,,0.00,weatherlink.com 1.10,2013-02-07 04:59:00,
2013-02-06 23:14:00,39.5,35.0,29.70,SSE,166,0.0,0.0,84,0.00,,,0.00,weatherlink.com 1.10,2013-02-07 05:14:00,
2013-02-06 23:29:00,39.5,35.0,29.71,SSE,166,0.0,1.0,84,0.00,,,0.00,weatherlink.com 1.10,2013-02-07 05:29:00,
2013-02-06 23:45:00,40.0,36.0,29.71,SSE,166,0.0,0.0,84,0.00,,,0.00,weatherlink.com 1.10,2013-02-07 05:45:00,